createdAt,value
2022-12-24T00:01:06.749Z,32.50
2022-12-24T00:03:34.708Z,32.60
2022-12-24T00:06:11.289Z,32.70
2022-12-24T00:08:38.399Z,32.70
2022-12-24T00:11:05.564Z,32.80
2022-12-24T00:13:32.669Z,32.80
2022-12-24T00:16:00.267Z,32.80
2022-12-24T00:18:27.984Z,32.70
2022-12-24T00:20:55.262Z,32.60
2022-12-24T00:23:22.361Z,32.50
2022-12-24T00:25:49.684Z,32.60
2022-12-24T00:28:22.569Z,32.60
2022-12-24T00:30:49.637Z,32.50
2022-12-24T00:33:22.464Z,32.60
2022-12-24T00:35:52.665Z,32.50
2022-12-24T00:38:19.906Z,32.60
2022-12-24T00:40:46.983Z,32.60
2022-12-24T00:43:14.075Z,32.70
2022-12-24T00:45:41.196Z,32.70
2022-12-24T00:48:08.305Z,32.70
2022-12-24T00:50:36.500Z,32.70
2022-12-24T00:53:04.816Z,32.70
2022-12-24T00:55:32.295Z,32.60
2022-12-24T00:57:59.288Z,32.60
2022-12-24T01:00:26.438Z,32.60
2022-12-24T01:02:53.608Z,32.60
2022-12-24T01:05:21.079Z,32.60
2022-12-24T01:07:48.381Z,32.60
2022-12-24T01:10:18.940Z,32.50
2022-12-24T01:12:47.352Z,32.40
2022-12-24T01:15:15.740Z,32.30
2022-12-24T01:17:43.037Z,32.40
2022-12-24T01:20:15.137Z,32.40
2022-12-24T01:22:42.335Z,32.40
2022-12-24T01:25:10.867Z,32.40
2022-12-24T01:27:38.218Z,32.40
2022-12-24T01:30:09.164Z,32.40
2022-12-24T01:32:36.505Z,32.30
2022-12-24T01:35:04.356Z,32.30
2022-12-24T01:37:31.472Z,32.10
2022-12-24T01:40:18.518Z,32.00
2022-12-24T01:43:07.163Z,32.00
2022-12-24T01:45:55.644Z,32.00
2022-12-24T01:48:51.580Z,31.80
2022-12-24T01:51:31.038Z,31.70
2022-12-24T01:54:03.625Z,31.80
2022-12-24T01:56:32.554Z,31.90
2022-12-24T01:59:06.506Z,32.00
2022-12-24T02:01:33.906Z,32.10
2022-12-24T02:04:07.433Z,32.10
2022-12-24T02:06:34.664Z,32.10
2022-12-24T02:09:02.160Z,32.10
2022-12-24T02:11:30.952Z,32.10
2022-12-24T02:14:01.503Z,32.10
2022-12-24T02:16:47.395Z,32.10
2022-12-24T02:19:17.420Z,32.10
2022-12-24T02:21:47.546Z,32.00
2022-12-24T02:24:49.124Z,32.00
2022-12-24T02:27:28.836Z,32.00
2022-12-24T02:30:11.221Z,32.00
2022-12-24T02:33:01.008Z,31.90
2022-12-24T02:36:04.521Z,31.90
2022-12-24T02:38:45.280Z,31.90
2022-12-24T02:41:54.920Z,31.80
2022-12-24T02:44:26.121Z,31.70
2022-12-24T02:46:54.078Z,31.80
2022-12-24T02:49:21.283Z,31.80
2022-12-24T02:51:48.470Z,31.70
2022-12-24T02:54:15.733Z,31.70
2022-12-24T02:57:24.521Z,31.80
2022-12-24T03:00:04.934Z,32.00
2022-12-24T03:02:41.125Z,31.90
2022-12-24T03:05:17.457Z,32.00
2022-12-24T03:07:50.003Z,31.40
2022-12-24T03:10:42.680Z,30.90
2022-12-24T03:13:20.811Z,31.10
2022-12-24T03:15:49.528Z,31.20
2022-12-24T03:18:21.156Z,31.00
2022-12-24T03:21:22.677Z,30.90
2022-12-24T03:23:49.895Z,31.50
2022-12-24T03:26:19.084Z,31.50
2022-12-24T03:28:47.150Z,31.70
2022-12-24T03:31:14.910Z,31.80
2022-12-24T03:33:42.511Z,31.80
2022-12-24T03:36:10.266Z,31.70
2022-12-24T03:38:37.352Z,31.80
2022-12-24T03:41:05.283Z,31.90
2022-12-24T03:43:33.013Z,31.70
2022-12-24T03:46:07.628Z,31.70
2022-12-24T03:48:35.899Z,31.80
2022-12-24T03:51:03.993Z,31.80
2022-12-24T03:53:31.139Z,31.60
2022-12-24T03:55:58.631Z,31.70
2022-12-24T03:58:26.704Z,31.60
2022-12-24T04:00:54.558Z,31.50
2022-12-24T04:03:21.804Z,31.60
2022-12-24T04:05:48.983Z,31.60
2022-12-24T04:08:16.124Z,31.50
2022-12-24T04:10:43.145Z,31.50
2022-12-24T04:13:10.367Z,31.50
2022-12-24T04:15:37.665Z,31.10
2022-12-24T04:18:05.286Z,31.40
2022-12-24T04:20:32.320Z,31.10
2022-12-24T04:22:59.382Z,31.40
2022-12-24T04:25:26.781Z,31.40
2022-12-24T04:27:53.946Z,31.40
2022-12-24T04:30:21.160Z,31.20
2022-12-24T04:32:48.231Z,31.00
2022-12-24T04:35:15.373Z,31.00
2022-12-24T04:37:42.658Z,30.90
2022-12-24T04:40:10.370Z,31.00
2022-12-24T04:42:37.622Z,31.10
2022-12-24T04:45:07.442Z,31.30
2022-12-24T04:47:34.599Z,31.40
2022-12-24T04:50:01.684Z,31.50
2022-12-24T04:52:29.417Z,31.50
2022-12-24T04:54:56.682Z,31.50
2022-12-24T04:57:23.774Z,31.50
2022-12-24T04:59:50.831Z,31.60
2022-12-24T05:02:18.214Z,31.50
2022-12-24T05:04:45.420Z,31.50
2022-12-24T05:07:12.692Z,31.40
2022-12-24T05:09:39.877Z,31.10
2022-12-24T05:12:07.236Z,30.70
2022-12-24T05:14:34.319Z,30.90
2022-12-24T05:17:01.513Z,31.30
2022-12-24T05:19:28.743Z,31.40
2022-12-24T05:22:14.193Z,31.40
2022-12-24T05:24:59.812Z,31.60
2022-12-24T05:27:27.173Z,31.50
2022-12-24T05:29:54.321Z,31.50
2022-12-24T05:32:21.458Z,31.20
2022-12-24T05:34:48.531Z,31.00
2022-12-24T05:37:15.964Z,31.10
2022-12-24T05:39:43.121Z,31.00
2022-12-24T05:42:10.367Z,31.20
2022-12-24T05:44:37.782Z,31.20
2022-12-24T05:47:04.959Z,31.20
2022-12-24T05:49:32.509Z,31.00
2022-12-24T05:51:59.556Z,31.30
2022-12-24T05:54:26.708Z,31.10
2022-12-24T05:56:53.860Z,31.20
2022-12-24T05:59:21.208Z,31.30
2022-12-24T06:01:48.475Z,31.50
2022-12-24T06:04:15.563Z,31.60
2022-12-24T06:06:42.900Z,31.80
2022-12-24T06:09:10.035Z,31.80
2022-12-24T06:11:37.088Z,31.80
2022-12-24T06:14:04.326Z,31.90
2022-12-24T06:16:31.468Z,31.90
2022-12-24T06:18:58.916Z,31.70
2022-12-24T06:21:26.034Z,31.70
2022-12-24T06:23:53.317Z,31.60
2022-12-24T06:26:22.771Z,31.70
2022-12-24T06:28:51.152Z,31.80
2022-12-24T06:31:21.893Z,31.70
2022-12-24T06:33:49.593Z,31.70
2022-12-24T06:36:24.597Z,31.70
2022-12-24T06:38:52.986Z,31.60
2022-12-24T06:41:20.527Z,31.70
2022-12-24T06:43:50.287Z,31.50
2022-12-24T06:46:18.229Z,31.50
2022-12-24T06:48:46.302Z,31.70
2022-12-24T06:51:14.981Z,31.80
2022-12-24T06:53:42.071Z,31.70
2022-12-24T06:56:11.564Z,31.80
2022-12-24T06:58:39.522Z,31.90
2022-12-24T07:01:08.268Z,31.80
2022-12-24T07:03:35.842Z,31.80
2022-12-24T07:06:03.103Z,31.80
2022-12-24T07:08:31.223Z,31.80
2022-12-24T07:10:59.526Z,31.90
2022-12-24T07:13:26.651Z,31.50
2022-12-24T07:16:04.503Z,31.60
2022-12-24T07:18:32.409Z,31.10
2022-12-24T07:20:59.484Z,31.30
2022-12-24T07:23:26.726Z,31.40
2022-12-24T07:25:53.834Z,31.60
2022-12-24T07:28:27.229Z,31.50
2022-12-24T07:30:55.852Z,31.50
2022-12-24T07:33:23.261Z,31.60
2022-12-24T07:35:57.495Z,31.70
2022-12-24T07:38:24.879Z,31.70
2022-12-24T07:40:51.914Z,31.80
2022-12-24T07:43:18.970Z,31.90
2022-12-24T07:45:46.009Z,32.00
2022-12-24T07:48:13.226Z,32.00
2022-12-24T07:50:40.838Z,31.90
2022-12-24T07:53:08.082Z,32.00
2022-12-24T07:55:36.231Z,32.00
2022-12-24T07:58:03.477Z,31.90
2022-12-24T08:00:31.058Z,32.00
2022-12-24T08:03:00.711Z,32.10
2022-12-24T08:05:28.686Z,32.00
2022-12-24T08:07:56.230Z,32.10
2022-12-24T08:10:23.390Z,32.20
2022-12-24T08:12:50.557Z,32.30
2022-12-24T08:15:17.654Z,32.40
2022-12-24T08:17:45.427Z,32.40
2022-12-24T08:20:12.690Z,32.50
2022-12-24T08:22:39.790Z,32.40
2022-12-24T08:25:07.780Z,32.00
2022-12-24T08:27:34.878Z,32.00
2022-12-24T08:30:02.275Z,32.00
2022-12-24T08:32:29.324Z,32.20
2022-12-24T08:34:56.920Z,32.20
2022-12-24T08:37:23.984Z,32.20
2022-12-24T08:39:51.057Z,32.20
2022-12-24T08:42:18.209Z,32.20
2022-12-24T08:44:45.275Z,32.40
2022-12-24T08:47:12.351Z,32.30
2022-12-24T08:49:40.125Z,32.30
2022-12-24T08:52:07.549Z,32.40
2022-12-24T08:54:34.659Z,32.30
2022-12-24T08:57:01.767Z,31.90
2022-12-24T08:59:28.766Z,31.30
2022-12-24T09:01:55.975Z,31.20
2022-12-24T09:04:24.352Z,31.30
2022-12-24T09:06:51.404Z,31.50
2022-12-24T09:09:18.489Z,31.60
2022-12-24T09:11:45.600Z,31.40
2022-12-24T09:14:12.679Z,31.40
2022-12-24T09:16:40.064Z,31.30
2022-12-24T09:19:07.110Z,30.70
2022-12-24T09:21:35.707Z,29.90
2022-12-24T09:24:04.803Z,30.00
2022-12-24T09:26:32.337Z,30.00
2022-12-24T09:29:02.880Z,30.10
2022-12-24T09:31:30.089Z,29.70
2022-12-24T09:33:57.116Z,30.10
2022-12-24T09:36:24.226Z,31.00
2022-12-24T09:38:51.528Z,31.40
2022-12-24T09:41:32.428Z,31.50
2022-12-24T09:44:25.759Z,31.90
2022-12-24T09:46:53.885Z,32.00
2022-12-24T09:49:28.235Z,32.20
2022-12-24T09:52:04.341Z,32.30
2022-12-24T09:54:47.756Z,32.40
2022-12-24T09:57:39.096Z,32.50
2022-12-24T10:00:17.174Z,32.60
2022-12-24T10:02:44.370Z,32.50
2022-12-24T10:05:16.058Z,32.40
2022-12-24T10:08:03.163Z,32.60
2022-12-24T10:10:40.930Z,32.50
2022-12-24T10:13:37.060Z,32.40
2022-12-24T10:16:17.786Z,32.20
2022-12-24T10:18:55.978Z,31.60
2022-12-24T10:21:58.816Z,31.90
2022-12-24T10:24:59.552Z,31.70
2022-12-24T10:27:32.599Z,31.90
2022-12-24T10:30:10.423Z,31.70
2022-12-24T10:32:41.149Z,31.80
2022-12-24T10:35:17.332Z,32.10
2022-12-24T10:37:48.207Z,32.00
2022-12-24T10:40:38.273Z,32.20
2022-12-24T10:43:17.469Z,32.40
2022-12-24T10:45:55.718Z,32.60
2022-12-24T10:48:50.603Z,32.70
2022-12-24T10:51:52.017Z,32.50
2022-12-24T10:54:27.006Z,32.40
2022-12-24T10:57:02.807Z,32.70
2022-12-24T10:59:36.370Z,32.80
2022-12-24T11:02:03.683Z,32.90
2022-12-24T11:04:33.143Z,33.10
2022-12-24T11:07:17.131Z,33.10
2022-12-24T11:10:05.735Z,32.40
2022-12-24T11:12:40.111Z,32.60
2022-12-24T11:15:23.976Z,32.60
2022-12-24T11:18:04.758Z,32.60
2022-12-24T11:20:34.625Z,32.60
2022-12-24T11:23:02.744Z,32.60
2022-12-24T11:25:32.231Z,32.40
2022-12-24T11:28:33.504Z,32.70
2022-12-24T11:31:07.003Z,33.00
2022-12-24T11:33:47.593Z,33.00
2022-12-24T11:36:17.089Z,33.10
2022-12-24T11:38:59.374Z,33.30
2022-12-24T11:41:27.100Z,33.30
2022-12-24T11:44:04.828Z,33.50
2022-12-24T11:46:40.828Z,33.40
2022-12-24T11:49:16.877Z,33.40
2022-12-24T11:52:12.349Z,33.50
2022-12-24T11:55:22.584Z,33.60
2022-12-24T11:58:00.819Z,33.40
2022-12-24T12:00:28.740Z,33.20
2022-12-24T12:02:59.856Z,32.50
2022-12-24T12:05:29.902Z,32.20
2022-12-24T12:08:10.165Z,32.10
2022-12-24T12:10:41.157Z,32.50
2022-12-24T12:13:16.084Z,32.30
2022-12-24T12:15:52.640Z,32.20
2022-12-24T12:18:28.864Z,32.10
2022-12-24T12:21:04.182Z,32.10
2022-12-24T12:23:36.788Z,32.50
2022-12-24T12:26:22.580Z,31.70
2022-12-24T12:29:18.800Z,31.90
2022-12-24T12:31:49.914Z,32.10
2022-12-24T12:34:25.186Z,32.20
2022-12-24T12:36:58.634Z,32.30
2022-12-24T12:39:25.695Z,32.20
2022-12-24T12:42:38.744Z,31.80
2022-12-24T12:45:34.495Z,32.00
2022-12-24T12:48:04.358Z,32.00
2022-12-24T12:50:47.888Z,32.30
2022-12-24T12:53:51.864Z,32.50
2022-12-24T12:56:32.336Z,32.40
2022-12-24T12:59:19.380Z,32.30
2022-12-24T13:01:51.716Z,32.50
2022-12-24T13:04:52.438Z,32.30
2022-12-24T13:07:51.544Z,32.20
2022-12-24T13:10:47.518Z,32.30
2022-12-24T13:13:35.642Z,32.50
2022-12-24T13:16:23.690Z,32.60
2022-12-24T13:18:59.024Z,32.40
2022-12-24T13:21:29.423Z,32.30
2022-12-24T13:24:06.546Z,32.00
2022-12-24T13:26:36.815Z,31.50
2022-12-24T13:29:51.551Z,30.90
2022-12-24T13:32:21.456Z,31.30
2022-12-24T13:35:01.823Z,30.50
2022-12-24T13:37:32.691Z,30.60
2022-12-24T13:40:09.129Z,30.50
2022-12-24T13:42:51.068Z,30.60
2022-12-24T13:45:34.015Z,30.80
2022-12-24T13:48:05.751Z,31.00
2022-12-24T13:50:55.343Z,30.90
2022-12-24T13:53:39.702Z,31.20
2022-12-24T13:56:14.381Z,31.70
2022-12-24T13:58:45.625Z,31.50
2022-12-24T14:01:17.409Z,31.40
2022-12-24T14:03:57.984Z,31.20
2022-12-24T14:06:40.730Z,31.10
2022-12-24T14:09:18.118Z,31.20
2022-12-24T14:11:54.325Z,31.70
2022-12-24T14:14:39.216Z,32.00
2022-12-24T14:17:28.323Z,31.50
2022-12-24T14:19:58.465Z,32.00
2022-12-24T14:22:40.144Z,31.80
2022-12-24T14:25:16.584Z,32.00
2022-12-24T14:27:47.639Z,31.80
2022-12-24T14:30:19.369Z,31.50
2022-12-24T14:32:47.388Z,31.70
2022-12-24T14:35:14.383Z,31.60
2022-12-24T14:37:44.860Z,31.70
2022-12-24T14:40:22.607Z,31.80
2022-12-24T14:43:15.163Z,32.10
2022-12-24T14:45:46.214Z,31.80
2022-12-24T14:48:33.468Z,31.80
2022-12-24T14:51:12.107Z,31.70
2022-12-24T14:54:11.112Z,32.00
2022-12-24T14:56:38.152Z,32.20
2022-12-24T14:59:20.951Z,32.50
2022-12-24T15:01:48.065Z,32.60
2022-12-24T15:04:16.541Z,32.70
2022-12-24T15:06:57.809Z,32.80
2022-12-24T15:09:26.308Z,32.90
2022-12-24T15:11:56.551Z,32.90
2022-12-24T15:14:26.797Z,32.90
2022-12-24T15:17:03.776Z,32.90
2022-12-24T15:19:41.428Z,32.90
2022-12-24T15:22:11.829Z,32.90
2022-12-24T15:24:48.554Z,32.80
2022-12-24T15:27:18.296Z,32.90
2022-12-24T15:29:48.159Z,32.90
2022-12-24T15:32:17.217Z,33.00
2022-12-24T15:34:52.466Z,32.90
2022-12-24T15:37:21.052Z,32.90
2022-12-24T15:39:54.711Z,32.80
2022-12-24T15:42:23.736Z,32.80
2022-12-24T15:45:03.030Z,32.80
2022-12-24T15:47:38.127Z,32.90
2022-12-24T15:50:15.234Z,32.90
2022-12-24T15:52:43.517Z,32.90
2022-12-24T15:55:47.031Z,32.90
2022-12-24T15:58:27.204Z,32.80
2022-12-24T16:01:30.766Z,32.80
2022-12-24T16:03:59.527Z,32.30
2022-12-24T16:06:28.402Z,32.40
2022-12-24T16:08:56.682Z,32.60
2022-12-24T16:11:34.033Z,32.50
2022-12-24T16:14:20.416Z,32.60
2022-12-24T16:16:50.298Z,32.60
2022-12-24T16:19:27.839Z,32.70
2022-12-24T16:21:57.888Z,32.80
2022-12-24T16:24:30.442Z,32.80
2022-12-24T16:26:58.278Z,32.60
2022-12-24T16:29:27.613Z,32.70
2022-12-24T16:31:56.822Z,32.60
2022-12-24T16:34:30.566Z,32.60
2022-12-24T16:36:58.897Z,32.50
2022-12-24T16:39:32.370Z,32.60
2022-12-24T16:42:19.769Z,32.60
2022-12-24T16:44:47.722Z,32.40
2022-12-24T16:47:27.487Z,32.60
2022-12-24T16:49:54.787Z,32.50
2022-12-24T16:52:26.344Z,32.60
2022-12-24T16:54:53.561Z,32.50
2022-12-24T16:57:22.508Z,32.50
2022-12-24T16:59:50.099Z,32.30
2022-12-24T17:02:19.999Z,32.30
2022-12-24T17:04:47.423Z,32.40
2022-12-24T17:07:16.718Z,32.40
2022-12-24T17:09:44.106Z,32.20
2022-12-24T17:12:11.956Z,32.40
2022-12-24T17:14:40.421Z,32.60
2022-12-24T17:17:07.510Z,32.60
2022-12-24T17:19:34.541Z,32.60
2022-12-24T17:22:01.556Z,32.70
2022-12-24T17:24:28.627Z,32.60
2022-12-24T17:26:55.784Z,32.60
2022-12-24T17:29:22.877Z,32.80
2022-12-24T17:31:51.521Z,32.80
2022-12-24T17:34:18.535Z,32.80
2022-12-24T17:36:45.736Z,32.90
2022-12-24T17:39:12.800Z,32.90
2022-12-24T17:41:39.928Z,33.00
2022-12-24T17:44:09.043Z,33.00
2022-12-24T17:46:36.220Z,32.80
2022-12-24T17:49:03.375Z,32.80
2022-12-24T17:51:33.382Z,32.80
2022-12-24T17:54:01.129Z,32.90
2022-12-24T17:56:28.909Z,32.90
2022-12-24T17:58:56.120Z,32.90
2022-12-24T18:01:25.293Z,32.90
2022-12-24T18:03:53.347Z,33.00
2022-12-24T18:06:21.082Z,32.90
2022-12-24T18:08:48.595Z,32.90
2022-12-24T18:11:27.619Z,32.90
2022-12-24T18:13:56.444Z,33.00
2022-12-24T18:16:26.534Z,32.90
2022-12-24T18:18:54.923Z,32.90
2022-12-24T18:21:25.112Z,32.90
2022-12-24T18:23:53.083Z,32.80
2022-12-24T18:26:20.963Z,32.60
2022-12-24T18:28:48.017Z,32.70
2022-12-24T18:31:19.147Z,32.60
2022-12-24T18:33:48.487Z,32.60
2022-12-24T18:36:16.374Z,32.70
2022-12-24T18:38:43.612Z,32.80
2022-12-24T18:41:16.900Z,32.90
2022-12-24T18:43:43.988Z,32.80
2022-12-24T18:46:13.961Z,32.70
2022-12-24T18:48:41.312Z,32.60
2022-12-24T18:51:10.614Z,32.60
2022-12-24T18:53:38.094Z,32.70
2022-12-24T18:56:10.443Z,32.70
2022-12-24T18:58:42.264Z,32.80
2022-12-24T19:01:13.504Z,32.80
2022-12-24T19:03:40.728Z,32.80
2022-12-24T19:06:08.454Z,32.70
2022-12-24T19:11:23.262Z,33.00
2022-12-24T19:13:50.894Z,33.10
2022-12-24T19:16:18.785Z,33.10
2022-12-24T19:18:45.980Z,33.10
2022-12-24T19:21:15.251Z,33.10
2022-12-24T19:23:42.519Z,33.00
2022-12-24T19:26:11.517Z,33.10
2022-12-24T19:28:38.875Z,33.10
2022-12-24T19:31:09.212Z,33.10
2022-12-24T19:33:45.331Z,33.10
2022-12-24T19:36:15.639Z,33.10
2022-12-24T19:38:43.097Z,33.10
2022-12-24T19:41:12.810Z,33.10
2022-12-24T19:43:45.735Z,33.10
2022-12-24T19:46:16.079Z,33.20
2022-12-24T19:48:43.997Z,33.20
2022-12-24T19:51:12.539Z,33.10
2022-12-24T19:53:40.439Z,33.00
2022-12-24T19:56:08.764Z,32.90
2022-12-24T19:58:36.468Z,32.80
2022-12-24T20:01:30.121Z,32.40
2022-12-24T20:03:57.832Z,32.30
2022-12-24T20:06:30.306Z,32.10
2022-12-24T20:09:02.078Z,32.00
2022-12-24T20:11:29.581Z,31.80
2022-12-24T20:13:58.999Z,32.10
2022-12-24T20:16:26.916Z,32.20
2022-12-24T20:18:59.877Z,31.90
2022-12-24T20:21:27.295Z,31.50
2022-12-24T20:23:54.812Z,31.50
2022-12-24T20:26:24.856Z,31.00
2022-12-24T20:28:52.766Z,30.90
2022-12-24T20:31:30.265Z,31.60
2022-12-24T20:33:59.052Z,31.10
2022-12-24T20:36:27.166Z,31.10
2022-12-24T20:38:54.410Z,31.30
2022-12-24T20:41:23.398Z,30.90
2022-12-24T20:43:51.009Z,31.10
2022-12-24T20:46:20.173Z,31.80
2022-12-24T20:48:47.895Z,32.20
2022-12-24T20:51:24.220Z,32.40
2022-12-24T20:53:57.818Z,32.30
2022-12-24T20:56:26.173Z,32.30
2022-12-24T20:58:53.903Z,32.50
2022-12-24T21:01:26.638Z,32.60
2022-12-24T21:03:55.329Z,32.50
2022-12-24T21:06:23.457Z,32.50
2022-12-24T21:08:51.818Z,32.30
2022-12-24T21:11:38.502Z,32.30
2022-12-24T21:14:05.632Z,32.40
2022-12-24T21:16:34.199Z,31.90
2022-12-24T21:19:01.818Z,31.90
2022-12-24T21:21:28.967Z,32.00
2022-12-24T21:23:56.018Z,31.80
2022-12-24T21:26:23.537Z,32.10
2022-12-24T21:28:50.785Z,31.80
2022-12-24T21:31:18.444Z,32.00
2022-12-24T21:33:46.093Z,32.20
2022-12-24T21:36:15.504Z,32.20
2022-12-24T21:38:43.130Z,31.70
2022-12-24T21:41:15.861Z,31.60
2022-12-24T21:43:44.177Z,31.80
2022-12-24T21:46:18.722Z,31.90
2022-12-24T21:49:04.344Z,32.10
2022-12-24T21:51:31.725Z,32.00
2022-12-24T21:54:17.482Z,32.20
2022-12-24T21:57:03.179Z,31.50
2022-12-24T21:59:30.558Z,31.60
2022-12-24T22:01:58.264Z,31.70
2022-12-24T22:04:26.318Z,31.80
2022-12-24T22:07:12.100Z,31.80
2022-12-24T22:09:58.339Z,31.60
2022-12-24T22:12:28.984Z,31.60
2022-12-24T22:14:58.867Z,31.70
2022-12-24T22:17:27.193Z,31.80
2022-12-24T22:19:55.213Z,31.70
2022-12-24T22:22:23.702Z,32.00
2022-12-24T22:24:51.067Z,32.20
2022-12-24T22:27:18.467Z,32.20
2022-12-24T22:29:45.572Z,32.40
2022-12-24T22:32:12.694Z,32.60
2022-12-24T22:34:39.764Z,32.70
2022-12-24T22:37:06.882Z,32.60
2022-12-24T22:39:34.030Z,32.60
2022-12-24T22:42:01.055Z,32.70
2022-12-24T22:44:28.191Z,32.80
2022-12-24T22:46:55.314Z,32.90
2022-12-24T22:49:22.425Z,32.60
2022-12-24T22:51:49.517Z,32.60
2022-12-24T22:54:16.794Z,32.80
2022-12-24T22:56:43.874Z,32.90
2022-12-24T22:59:13.918Z,32.70
2022-12-24T23:01:43.643Z,32.80
2022-12-24T23:04:11.892Z,32.90
2022-12-24T23:06:39.980Z,32.90
2022-12-24T23:09:09.523Z,32.90
2022-12-24T23:11:36.634Z,32.80
2022-12-24T23:14:21.947Z,32.80
2022-12-24T23:16:48.999Z,32.50
2022-12-24T23:19:16.129Z,32.50
2022-12-24T23:21:43.458Z,32.50
2022-12-24T23:24:11.290Z,32.50
2022-12-24T23:26:38.671Z,32.30
2022-12-24T23:29:06.724Z,32.10
2022-12-24T23:31:35.002Z,32.10
2022-12-24T23:34:02.525Z,32.10
2022-12-24T23:36:29.997Z,32.10
2022-12-24T23:38:57.661Z,32.10
2022-12-24T23:41:26.392Z,32.10
2022-12-24T23:43:53.522Z,32.20
2022-12-24T23:46:21.776Z,32.10
2022-12-24T23:48:53.310Z,32.20
2022-12-24T23:51:23.698Z,32.00
2022-12-24T23:53:52.562Z,31.20
2022-12-24T23:56:20.334Z,31.20
2022-12-24T23:58:48.256Z,31.50
